Alpharetta, Georgia
Current Conditions -  °F | °C
As of 9:53 AM on Thursday 18 Dec 2014 (Local Time) from KPDK Reporting Station
Overcast Overcast  
Wind Chill: 39°   Ceiling: 7500
Heat Index: 42°   Visibility: 10mi
Dew Point: 31°   Wind: 5mph
Humidity: 65%   Direction: 310°NW
Pressure: 30.18"   Gusts: NA
Location:  34.08°N, 84.29°W
Report Text: KPDK 181453Z 31004KT 10SM BKN075 OVC110 06/M01 A3018 RMK AO2 SLP229 T00561006 51008
Loading
Personal Weather Stations






























Interactive Weather Map New forecast layout! Learn more

10-Day Weather Forecast

Advertisements
Track Severe Weather on mobile